sensor_id;sensor_type;location;lat;lon;timestamp;P1;durP1;ratioP1;P2;durP2;ratioP2
16957;SDS011;8595;52.542;11.974;2023-01-31T00:00:17;23.07;;;4.87;;
16957;SDS011;8595;52.542;11.974;2023-01-31T00:02:44;16.43;;;4.13;;
16957;SDS011;8595;52.542;11.974;2023-01-31T00:05:10;17.73;;;4.03;;
16957;SDS011;8595;52.542;11.974;2023-01-31T00:07:37;15.90;;;4.10;;
16957;SDS011;8595;52.542;11.974;2023-01-31T00:10:04;13.80;;;3.90;;
16957;SDS011;8595;52.542;11.974;2023-01-31T00:12:32;16.13;;;3.87;;
16957;SDS011;8595;52.542;11.974;2023-01-31T00:15:00;11.37;;;3.33;;
16957;SDS011;8595;52.542;11.974;2023-01-31T00:17:26;10.40;;;3.37;;
16957;SDS011;8595;52.542;11.974;2023-01-31T00:19:53;16.47;;;3.47;;
16957;SDS011;8595;52.542;11.974;2023-01-31T00:22:20;18.23;;;3.70;;
16957;SDS011;8595;52.542;11.974;2023-01-31T00:24:47;25.83;;;4.27;;
16957;SDS011;8595;52.542;11.974;2023-01-31T00:27:13;15.63;;;4.20;;
16957;SDS011;8595;52.542;11.974;2023-01-31T00:29:40;13.17;;;3.60;;
16957;SDS011;8595;52.542;11.974;2023-01-31T00:32:08;17.90;;;3.73;;
16957;SDS011;8595;52.542;11.974;2023-01-31T00:34:34;20.83;;;4.27;;
16957;SDS011;8595;52.542;11.974;2023-01-31T00:37:01;17.40;;;3.90;;
16957;SDS011;8595;52.542;11.974;2023-01-31T00:39:28;19.27;;;3.83;;
16957;SDS011;8595;52.542;11.974;2023-01-31T00:41:54;20.17;;;4.17;;
16957;SDS011;8595;52.542;11.974;2023-01-31T00:44:21;13.27;;;3.40;;
16957;SDS011;8595;52.542;11.974;2023-01-31T00:46:48;14.83;;;4.50;;
16957;SDS011;8595;52.542;11.974;2023-01-31T00:49:16;18.70;;;3.83;;
16957;SDS011;8595;52.542;11.974;2023-01-31T00:51:42;12.70;;;4.33;;
16957;SDS011;8595;52.542;11.974;2023-01-31T00:54:09;18.40;;;3.83;;
16957;SDS011;8595;52.542;11.974;2023-01-31T00:56:36;19.80;;;4.20;;
16957;SDS011;8595;52.542;11.974;2023-01-31T00:59:02;18.10;;;4.03;;
16957;SDS011;8595;52.542;11.974;2023-01-31T01:01:33;8.93;;;3.30;;
16957;SDS011;8595;52.542;11.974;2023-01-31T01:04:00;14.50;;;3.63;;
16957;SDS011;8595;52.542;11.974;2023-01-31T01:06:28;17.27;;;3.63;;
16957;SDS011;8595;52.542;11.974;2023-01-31T01:08:55;18.27;;;3.73;;
16957;SDS011;8595;52.542;11.974;2023-01-31T01:11:24;21.07;;;3.77;;
16957;SDS011;8595;52.542;11.974;2023-01-31T01:13:53;11.57;;;3.10;;
16957;SDS011;8595;52.542;11.974;2023-01-31T01:16:20;14.87;;;3.67;;
16957;SDS011;8595;52.542;11.974;2023-01-31T01:18:50;16.10;;;4.60;;
16957;SDS011;8595;52.542;11.974;2023-01-31T01:21:19;21.13;;;4.73;;
16957;SDS011;8595;52.542;11.974;2023-01-31T01:23:48;20.80;;;4.07;;
16957;SDS011;8595;52.542;11.974;2023-01-31T01:26:18;11.17;;;3.00;;
16957;SDS011;8595;52.542;11.974;2023-01-31T01:28:45;16.33;;;3.70;;
16957;SDS011;8595;52.542;11.974;2023-01-31T01:31:13;20.27;;;4.10;;
16957;SDS011;8595;52.542;11.974;2023-01-31T01:33:42;22.97;;;4.00;;
16957;SDS011;8595;52.542;11.974;2023-01-31T01:36:09;17.47;;;4.53;;
16957;SDS011;8595;52.542;11.974;2023-01-31T01:38:37;17.87;;;4.00;;
16957;SDS011;8595;52.542;11.974;2023-01-31T01:41:06;16.30;;;4.00;;
16957;SDS011;8595;52.542;11.974;2023-01-31T01:43:38;16.97;;;4.03;;
16957;SDS011;8595;52.542;11.974;2023-01-31T01:46:05;23.40;;;4.33;;
16957;SDS011;8595;52.542;11.974;2023-01-31T01:48:34;24.03;;;5.10;;
16957;SDS011;8595;52.542;11.974;2023-01-31T01:51:01;21.87;;;5.00;;
16957;SDS011;8595;52.542;11.974;2023-01-31T01:53:30;13.73;;;3.80;;
16957;SDS011;8595;52.542;11.974;2023-01-31T01:56:01;16.43;;;3.90;;
16957;SDS011;8595;52.542;11.974;2023-01-31T01:58:37;19.93;;;3.97;;
16957;SDS011;8595;52.542;11.974;2023-01-31T02:01:08;18.10;;;4.67;;
16957;SDS011;8595;52.542;11.974;2023-01-31T02:03:37;22.87;;;3.67;;
16957;SDS011;8595;52.542;11.974;2023-01-31T02:06:05;16.47;;;4.47;;
16957;SDS011;8595;52.542;11.974;2023-01-31T02:08:34;16.40;;;4.03;;
16957;SDS011;8595;52.542;11.974;2023-01-31T02:11:03;13.60;;;3.30;;
16957;SDS011;8595;52.542;11.974;2023-01-31T02:13:36;19.23;;;3.60;;
16957;SDS011;8595;52.542;11.974;2023-01-31T02:16:05;18.00;;;3.63;;
16957;SDS011;8595;52.542;11.974;2023-01-31T02:18:31;16.67;;;4.43;;
16957;SDS011;8595;52.542;11.974;2023-01-31T02:21:06;17.87;;;3.77;;
16957;SDS011;8595;52.542;11.974;2023-01-31T02:27:14;10.90;;;3.10;;
16957;SDS011;8595;52.542;11.974;2023-01-31T02:30:02;18.37;;;3.87;;
16957;SDS011;8595;52.542;11.974;2023-01-31T02:32:53;19.50;;;4.37;;
16957;SDS011;8595;52.542;11.974;2023-01-31T02:35:30;18.63;;;3.70;;
16957;SDS011;8595;52.542;11.974;2023-01-31T02:38:08;18.03;;;3.73;;
16957;SDS011;8595;52.542;11.974;2023-01-31T02:40:45;15.53;;;3.93;;
16957;SDS011;8595;52.542;11.974;2023-01-31T02:43:17;17.23;;;3.87;;
16957;SDS011;8595;52.542;11.974;2023-01-31T02:45:50;20.00;;;4.50;;
16957;SDS011;8595;52.542;11.974;2023-01-31T02:48:27;15.73;;;3.73;;
16957;SDS011;8595;52.542;11.974;2023-01-31T02:51:01;11.30;;;3.63;;
16957;SDS011;8595;52.542;11.974;2023-01-31T02:53:32;13.17;;;3.80;;
16957;SDS011;8595;52.542;11.974;2023-01-31T02:56:02;23.43;;;4.53;;
16957;SDS011;8595;52.542;11.974;2023-01-31T02:58:43;20.30;;;4.27;;
16957;SDS011;8595;52.542;11.974;2023-01-31T03:01:14;20.43;;;4.37;;
16957;SDS011;8595;52.542;11.974;2023-01-31T03:03:49;19.87;;;4.73;;
16957;SDS011;8595;52.542;11.974;2023-01-31T03:09:27;23.20;;;4.70;;
16957;SDS011;8595;52.542;11.974;2023-01-31T03:12:04;26.87;;;4.67;;
16957;SDS011;8595;52.542;11.974;2023-01-31T03:14:45;14.90;;;4.00;;
16957;SDS011;8595;52.542;11.974;2023-01-31T03:17:22;14.60;;;4.20;;
16957;SDS011;8595;52.542;11.974;2023-01-31T03:19:59;21.53;;;4.67;;
16957;SDS011;8595;52.542;11.974;2023-01-31T03:22:33;16.53;;;4.93;;
16957;SDS011;8595;52.542;11.974;2023-01-31T03:25:03;20.90;;;4.27;;
16957;SDS011;8595;52.542;11.974;2023-01-31T03:27:33;20.10;;;4.53;;
16957;SDS011;8595;52.542;11.974;2023-01-31T03:30:01;16.63;;;4.50;;
16957;SDS011;8595;52.542;11.974;2023-01-31T03:32:34;19.03;;;4.67;;
16957;SDS011;8595;52.542;11.974;2023-01-31T03:35:08;20.03;;;4.43;;
16957;SDS011;8595;52.542;11.974;2023-01-31T03:37:38;13.93;;;3.87;;
16957;SDS011;8595;52.542;11.974;2023-01-31T03:40:10;21.60;;;4.70;;
16957;SDS011;8595;52.542;11.974;2023-01-31T03:42:44;20.73;;;4.40;;
16957;SDS011;8595;52.542;11.974;2023-01-31T03:45:18;25.63;;;4.33;;
16957;SDS011;8595;52.542;11.974;2023-01-31T03:47:50;15.43;;;4.60;;
16957;SDS011;8595;52.542;11.974;2023-01-31T03:50:22;17.57;;;5.50;;
16957;SDS011;8595;52.542;11.974;2023-01-31T03:52:54;23.97;;;4.90;;
16957;SDS011;8595;52.542;11.974;2023-01-31T03:55:26;25.20;;;4.40;;
16957;SDS011;8595;52.542;11.974;2023-01-31T03:57:58;18.70;;;4.43;;
16957;SDS011;8595;52.542;11.974;2023-01-31T04:00:28;19.37;;;5.60;;
16957;SDS011;8595;52.542;11.974;2023-01-31T04:03:02;19.27;;;4.97;;
16957;SDS011;8595;52.542;11.974;2023-01-31T04:05:33;16.33;;;4.20;;
16957;SDS011;8595;52.542;11.974;2023-01-31T04:08:00;15.70;;;4.63;;
16957;SDS011;8595;52.542;11.974;2023-01-31T04:10:26;19.77;;;4.00;;
16957;SDS011;8595;52.542;11.974;2023-01-31T04:12:53;17.97;;;4.87;;
16957;SDS011;8595;52.542;11.974;2023-01-31T04:15:20;18.77;;;4.33;;
16957;SDS011;8595;52.542;11.974;2023-01-31T04:17:47;18.67;;;4.10;;
16957;SDS011;8595;52.542;11.974;2023-01-31T04:20:13;20.90;;;4.23;;
16957;SDS011;8595;52.542;11.974;2023-01-31T04:22:41;21.53;;;3.87;;
16957;SDS011;8595;52.542;11.974;2023-01-31T04:25:08;19.73;;;4.13;;
16957;SDS011;8595;52.542;11.974;2023-01-31T04:27:35;27.77;;;4.67;;
16957;SDS011;8595;52.542;11.974;2023-01-31T04:30:03;19.07;;;4.53;;
16957;SDS011;8595;52.542;11.974;2023-01-31T04:32:30;15.50;;;4.13;;
16957;SDS011;8595;52.542;11.974;2023-01-31T04:34:57;23.90;;;3.93;;
16957;SDS011;8595;52.542;11.974;2023-01-31T04:37:24;18.57;;;4.03;;
16957;SDS011;8595;52.542;11.974;2023-01-31T04:39:51;19.33;;;4.17;;
16957;SDS011;8595;52.542;11.974;2023-01-31T04:42:18;22.10;;;4.80;;
16957;SDS011;8595;52.542;11.974;2023-01-31T04:44:45;16.80;;;3.53;;
16957;SDS011;8595;52.542;11.974;2023-01-31T04:47:11;15.67;;;3.93;;
16957;SDS011;8595;52.542;11.974;2023-01-31T04:49:38;8.60;;;3.77;;
16957;SDS011;8595;52.542;11.974;2023-01-31T04:52:05;21.90;;;4.03;;
16957;SDS011;8595;52.542;11.974;2023-01-31T04:54:31;12.53;;;3.17;;
16957;SDS011;8595;52.542;11.974;2023-01-31T04:56:59;16.37;;;4.33;;
16957;SDS011;8595;52.542;11.974;2023-01-31T04:59:26;16.97;;;4.30;;
16957;SDS011;8595;52.542;11.974;2023-01-31T05:01:53;15.13;;;3.90;;
16957;SDS011;8595;52.542;11.974;2023-01-31T05:04:20;14.53;;;4.23;;
16957;SDS011;8595;52.542;11.974;2023-01-31T05:06:47;17.40;;;3.77;;
16957;SDS011;8595;52.542;11.974;2023-01-31T05:09:14;13.43;;;3.37;;
16957;SDS011;8595;52.542;11.974;2023-01-31T05:11:42;16.93;;;4.43;;
16957;SDS011;8595;52.542;11.974;2023-01-31T05:14:10;26.23;;;4.60;;
16957;SDS011;8595;52.542;11.974;2023-01-31T05:16:37;18.33;;;4.83;;
16957;SDS011;8595;52.542;11.974;2023-01-31T05:19:04;21.23;;;4.17;;
16957;SDS011;8595;52.542;11.974;2023-01-31T05:21:31;16.83;;;3.80;;
16957;SDS011;8595;52.542;11.974;2023-01-31T05:24:18;22.53;;;4.93;;
16957;SDS011;8595;52.542;11.974;2023-01-31T05:26:45;22.70;;;4.07;;
16957;SDS011;8595;52.542;11.974;2023-01-31T05:29:15;24.73;;;4.93;;
16957;SDS011;8595;52.542;11.974;2023-01-31T05:31:43;20.13;;;4.43;;
16957;SDS011;8595;52.542;11.974;2023-01-31T05:34:09;21.63;;;4.53;;
16957;SDS011;8595;52.542;11.974;2023-01-31T05:36:39;29.10;;;5.07;;
16957;SDS011;8595;52.542;11.974;2023-01-31T05:39:06;18.83;;;4.37;;
16957;SDS011;8595;52.542;11.974;2023-01-31T05:41:33;20.80;;;4.50;;
16957;SDS011;8595;52.542;11.974;2023-01-31T05:43:59;18.17;;;4.93;;
16957;SDS011;8595;52.542;11.974;2023-01-31T05:46:27;21.60;;;5.40;;
16957;SDS011;8595;52.542;11.974;2023-01-31T05:48:54;16.93;;;5.33;;
16957;SDS011;8595;52.542;11.974;2023-01-31T05:51:21;18.53;;;4.07;;
16957;SDS011;8595;52.542;11.974;2023-01-31T05:53:47;16.80;;;4.33;;
16957;SDS011;8595;52.542;11.974;2023-01-31T05:56:14;18.37;;;4.23;;
16957;SDS011;8595;52.542;11.974;2023-01-31T05:58:41;27.60;;;4.07;;
16957;SDS011;8595;52.542;11.974;2023-01-31T06:01:08;19.60;;;4.10;;
16957;SDS011;8595;52.542;11.974;2023-01-31T06:03:36;13.00;;;4.03;;
16957;SDS011;8595;52.542;11.974;2023-01-31T06:06:03;15.60;;;3.83;;
16957;SDS011;8595;52.542;11.974;2023-01-31T06:08:30;16.07;;;5.20;;
16957;SDS011;8595;52.542;11.974;2023-01-31T06:10:56;22.73;;;4.73;;
16957;SDS011;8595;52.542;11.974;2023-01-31T06:13:26;16.23;;;3.83;;
16957;SDS011;8595;52.542;11.974;2023-01-31T06:15:53;17.03;;;4.03;;
16957;SDS011;8595;52.542;11.974;2023-01-31T06:18:19;24.90;;;4.30;;
16957;SDS011;8595;52.542;11.974;2023-01-31T06:20:47;21.57;;;4.27;;
16957;SDS011;8595;52.542;11.974;2023-01-31T06:23:14;17.50;;;3.73;;
16957;SDS011;8595;52.542;11.974;2023-01-31T06:25:41;19.10;;;3.97;;
16957;SDS011;8595;52.542;11.974;2023-01-31T06:28:07;19.53;;;5.27;;
16957;SDS011;8595;52.542;11.974;2023-01-31T06:30:34;22.77;;;4.10;;
16957;SDS011;8595;52.542;11.974;2023-01-31T06:33:01;12.80;;;3.47;;
16957;SDS011;8595;52.542;11.974;2023-01-31T06:35:28;13.07;;;4.03;;
16957;SDS011;8595;52.542;11.974;2023-01-31T06:37:56;16.10;;;4.90;;
16957;SDS011;8595;52.542;11.974;2023-01-31T06:40:23;28.63;;;8.73;;
16957;SDS011;8595;52.542;11.974;2023-01-31T06:42:49;21.30;;;5.50;;
16957;SDS011;8595;52.542;11.974;2023-01-31T06:45:16;18.00;;;5.20;;
16957;SDS011;8595;52.542;11.974;2023-01-31T06:47:43;20.67;;;4.93;;
16957;SDS011;8595;52.542;11.974;2023-01-31T06:50:10;20.03;;;5.70;;
16957;SDS011;8595;52.542;11.974;2023-01-31T06:52:38;20.30;;;5.13;;
16957;SDS011;8595;52.542;11.974;2023-01-31T06:55:06;26.00;;;4.93;;
16957;SDS011;8595;52.542;11.974;2023-01-31T06:57:34;12.87;;;3.60;;
16957;SDS011;8595;52.542;11.974;2023-01-31T07:00:00;15.67;;;4.30;;
16957;SDS011;8595;52.542;11.974;2023-01-31T07:02:28;21.00;;;3.80;;
16957;SDS011;8595;52.542;11.974;2023-01-31T07:04:54;18.93;;;4.03;;
16957;SDS011;8595;52.542;11.974;2023-01-31T07:07:21;26.63;;;6.17;;
16957;SDS011;8595;52.542;11.974;2023-01-31T07:09:47;19.83;;;4.67;;
16957;SDS011;8595;52.542;11.974;2023-01-31T07:12:15;27.20;;;5.30;;
16957;SDS011;8595;52.542;11.974;2023-01-31T07:14:42;18.70;;;3.47;;
16957;SDS011;8595;52.542;11.974;2023-01-31T07:17:08;13.07;;;3.80;;
16957;SDS011;8595;52.542;11.974;2023-01-31T07:19:35;14.80;;;4.30;;
16957;SDS011;8595;52.542;11.974;2023-01-31T07:22:01;20.13;;;4.40;;
16957;SDS011;8595;52.542;11.974;2023-01-31T07:24:28;22.03;;;4.80;;
16957;SDS011;8595;52.542;11.974;2023-01-31T07:26:55;23.63;;;4.53;;
16957;SDS011;8595;52.542;11.974;2023-01-31T07:29:23;23.93;;;6.50;;
16957;SDS011;8595;52.542;11.974;2023-01-31T07:31:49;19.27;;;4.67;;
16957;SDS011;8595;52.542;11.974;2023-01-31T07:34:16;21.93;;;4.97;;
16957;SDS011;8595;52.542;11.974;2023-01-31T07:36:45;22.23;;;4.80;;
16957;SDS011;8595;52.542;11.974;2023-01-31T07:39:13;23.30;;;5.27;;
16957;SDS011;8595;52.542;11.974;2023-01-31T07:41:39;15.10;;;5.30;;
16957;SDS011;8595;52.542;11.974;2023-01-31T07:44:06;18.53;;;4.77;;
16957;SDS011;8595;52.542;11.974;2023-01-31T07:46:36;25.30;;;5.63;;
16957;SDS011;8595;52.542;11.974;2023-01-31T07:49:04;26.30;;;4.90;;
16957;SDS011;8595;52.542;11.974;2023-01-31T07:51:31;20.80;;;4.57;;
16957;SDS011;8595;52.542;11.974;2023-01-31T07:53:58;27.07;;;5.87;;
16957;SDS011;8595;52.542;11.974;2023-01-31T07:56:25;23.07;;;5.40;;
16957;SDS011;8595;52.542;11.974;2023-01-31T07:58:51;22.23;;;5.13;;
16957;SDS011;8595;52.542;11.974;2023-01-31T08:01:19;24.07;;;4.40;;
16957;SDS011;8595;52.542;11.974;2023-01-31T08:04:06;19.10;;;4.83;;
16957;SDS011;8595;52.542;11.974;2023-01-31T08:06:33;17.53;;;4.53;;
16957;SDS011;8595;52.542;11.974;2023-01-31T08:09:00;24.87;;;4.77;;
16957;SDS011;8595;52.542;11.974;2023-01-31T08:11:27;20.57;;;5.17;;
16957;SDS011;8595;52.542;11.974;2023-01-31T08:13:54;21.33;;;4.97;;
16957;SDS011;8595;52.542;11.974;2023-01-31T08:16:21;19.17;;;4.30;;
16957;SDS011;8595;52.542;11.974;2023-01-31T08:18:48;18.90;;;4.30;;
16957;SDS011;8595;52.542;11.974;2023-01-31T08:21:16;26.67;;;4.97;;
16957;SDS011;8595;52.542;11.974;2023-01-31T08:23:43;22.27;;;5.27;;
16957;SDS011;8595;52.542;11.974;2023-01-31T08:26:11;16.10;;;4.87;;
16957;SDS011;8595;52.542;11.974;2023-01-31T08:28:39;23.10;;;4.63;;
16957;SDS011;8595;52.542;11.974;2023-01-31T08:31:10;17.90;;;4.57;;
16957;SDS011;8595;52.542;11.974;2023-01-31T08:33:38;21.43;;;4.50;;
16957;SDS011;8595;52.542;11.974;2023-01-31T08:36:08;14.40;;;4.00;;
16957;SDS011;8595;52.542;11.974;2023-01-31T08:38:37;18.57;;;4.60;;
16957;SDS011;8595;52.542;11.974;2023-01-31T08:41:04;22.20;;;4.40;;
16957;SDS011;8595;52.542;11.974;2023-01-31T08:43:31;18.97;;;4.70;;
16957;SDS011;8595;52.542;11.974;2023-01-31T08:45:57;17.20;;;4.80;;
16957;SDS011;8595;52.542;11.974;2023-01-31T08:48:24;16.37;;;4.50;;
16957;SDS011;8595;52.542;11.974;2023-01-31T08:50:51;21.83;;;4.33;;
16957;SDS011;8595;52.542;11.974;2023-01-31T08:53:17;19.70;;;4.30;;
16957;SDS011;8595;52.542;11.974;2023-01-31T08:55:45;20.57;;;4.27;;
16957;SDS011;8595;52.542;11.974;2023-01-31T08:58:12;19.70;;;5.07;;
16957;SDS011;8595;52.542;11.974;2023-01-31T09:00:39;18.57;;;4.47;;
16957;SDS011;8595;52.542;11.974;2023-01-31T09:03:05;16.73;;;4.13;;
16957;SDS011;8595;52.542;11.974;2023-01-31T09:05:32;18.50;;;4.87;;
16957;SDS011;8595;52.542;11.974;2023-01-31T09:07:58;18.07;;;4.10;;
16957;SDS011;8595;52.542;11.974;2023-01-31T09:10:25;18.13;;;4.37;;
16957;SDS011;8595;52.542;11.974;2023-01-31T09:12:53;22.03;;;4.27;;
16957;SDS011;8595;52.542;11.974;2023-01-31T09:15:20;21.90;;;4.87;;
16957;SDS011;8595;52.542;11.974;2023-01-31T09:17:46;24.67;;;5.97;;
16957;SDS011;8595;52.542;11.974;2023-01-31T09:20:13;18.53;;;5.83;;
16957;SDS011;8595;52.542;11.974;2023-01-31T09:22:40;16.30;;;4.40;;
16957;SDS011;8595;52.542;11.974;2023-01-31T09:25:07;16.60;;;5.60;;
16957;SDS011;8595;52.542;11.974;2023-01-31T09:27:34;20.60;;;4.77;;
16957;SDS011;8595;52.542;11.974;2023-01-31T09:30:03;20.73;;;5.60;;
16957;SDS011;8595;52.542;11.974;2023-01-31T09:32:31;10.97;;;3.87;;
16957;SDS011;8595;52.542;11.974;2023-01-31T09:34:58;27.07;;;5.10;;
16957;SDS011;8595;52.542;11.974;2023-01-31T09:37:25;18.07;;;5.10;;
16957;SDS011;8595;52.542;11.974;2023-01-31T09:39:53;21.60;;;5.87;;
16957;SDS011;8595;52.542;11.974;2023-01-31T09:42:21;20.07;;;5.83;;
16957;SDS011;8595;52.542;11.974;2023-01-31T09:44:55;26.07;;;6.10;;
16957;SDS011;8595;52.542;11.974;2023-01-31T09:47:25;21.17;;;4.80;;
16957;SDS011;8595;52.542;11.974;2023-01-31T09:49:57;26.40;;;5.90;;
16957;SDS011;8595;52.542;11.974;2023-01-31T09:52:29;18.33;;;5.90;;
16957;SDS011;8595;52.542;11.974;2023-01-31T09:54:56;16.63;;;6.27;;
16957;SDS011;8595;52.542;11.974;2023-01-31T09:57:25;19.53;;;5.60;;
16957;SDS011;8595;52.542;11.974;2023-01-31T10:00:02;13.97;;;5.43;;
16957;SDS011;8595;52.542;11.974;2023-01-31T10:03:15;23.37;;;7.07;;
16957;SDS011;8595;52.542;11.974;2023-01-31T10:05:51;20.97;;;6.57;;
16957;SDS011;8595;52.542;11.974;2023-01-31T10:08:27;24.57;;;6.83;;
16957;SDS011;8595;52.542;11.974;2023-01-31T10:11:05;20.70;;;8.03;;
16957;SDS011;8595;52.542;11.974;2023-01-31T10:13:37;20.37;;;7.43;;
16957;SDS011;8595;52.542;11.974;2023-01-31T10:16:12;28.27;;;7.70;;
16957;SDS011;8595;52.542;11.974;2023-01-31T10:18:48;23.97;;;6.87;;
16957;SDS011;8595;52.542;11.974;2023-01-31T10:21:19;22.77;;;6.67;;
16957;SDS011;8595;52.542;11.974;2023-01-31T10:23:49;25.70;;;7.60;;
16957;SDS011;8595;52.542;11.974;2023-01-31T10:26:22;23.00;;;7.00;;
16957;SDS011;8595;52.542;11.974;2023-01-31T10:28:53;27.60;;;8.00;;
16957;SDS011;8595;52.542;11.974;2023-01-31T10:31:25;22.10;;;7.23;;
16957;SDS011;8595;52.542;11.974;2023-01-31T10:33:57;23.17;;;7.00;;
16957;SDS011;8595;52.542;11.974;2023-01-31T10:36:31;25.00;;;7.07;;
16957;SDS011;8595;52.542;11.974;2023-01-31T10:39:03;19.97;;;6.77;;
16957;SDS011;8595;52.542;11.974;2023-01-31T10:41:38;23.07;;;8.17;;
16957;SDS011;8595;52.542;11.974;2023-01-31T10:44:14;25.80;;;7.90;;
16957;SDS011;8595;52.542;11.974;2023-01-31T10:46:48;23.13;;;7.87;;
16957;SDS011;8595;52.542;11.974;2023-01-31T10:49:17;25.60;;;7.53;;
16957;SDS011;8595;52.542;11.974;2023-01-31T10:51:51;17.80;;;6.60;;
16957;SDS011;8595;52.542;11.974;2023-01-31T10:54:33;24.60;;;8.07;;
16957;SDS011;8595;52.542;11.974;2023-01-31T10:57:11;30.37;;;7.47;;
16957;SDS011;8595;52.542;11.974;2023-01-31T10:59:39;21.17;;;8.73;;
16957;SDS011;8595;52.542;11.974;2023-01-31T11:02:13;33.20;;;8.57;;
16957;SDS011;8595;52.542;11.974;2023-01-31T11:04:45;21.57;;;7.60;;
16957;SDS011;8595;52.542;11.974;2023-01-31T11:07:14;22.90;;;7.33;;
16957;SDS011;8595;52.542;11.974;2023-01-31T11:09:42;22.23;;;7.67;;
16957;SDS011;8595;52.542;11.974;2023-01-31T11:12:11;22.50;;;8.77;;
16957;SDS011;8595;52.542;11.974;2023-01-31T11:14:38;31.87;;;8.43;;
16957;SDS011;8595;52.542;11.974;2023-01-31T11:17:06;20.27;;;7.90;;
16957;SDS011;8595;52.542;11.974;2023-01-31T11:19:39;28.33;;;8.47;;
16957;SDS011;8595;52.542;11.974;2023-01-31T11:22:17;32.03;;;8.43;;
16957;SDS011;8595;52.542;11.974;2023-01-31T11:24:47;23.93;;;9.00;;
16957;SDS011;8595;52.542;11.974;2023-01-31T11:27:21;26.50;;;9.00;;
16957;SDS011;8595;52.542;11.974;2023-01-31T11:29:50;18.33;;;8.43;;
16957;SDS011;8595;52.542;11.974;2023-01-31T11:32:19;20.90;;;8.87;;
16957;SDS011;8595;52.542;11.974;2023-01-31T11:34:54;18.27;;;6.60;;
16957;SDS011;8595;52.542;11.974;2023-01-31T11:37:23;18.03;;;8.47;;
16957;SDS011;8595;52.542;11.974;2023-01-31T11:39:53;21.53;;;9.30;;
16957;SDS011;8595;52.542;11.974;2023-01-31T11:42:21;24.90;;;9.27;;
16957;SDS011;8595;52.542;11.974;2023-01-31T11:44:55;22.03;;;9.07;;
16957;SDS011;8595;52.542;11.974;2023-01-31T11:47:26;22.30;;;9.17;;
16957;SDS011;8595;52.542;11.974;2023-01-31T11:49:57;17.17;;;7.40;;
16957;SDS011;8595;52.542;11.974;2023-01-31T11:52:28;18.63;;;8.50;;
16957;SDS011;8595;52.542;11.974;2023-01-31T11:54:57;20.40;;;7.73;;
16957;SDS011;8595;52.542;11.974;2023-01-31T11:57:28;24.97;;;8.83;;
16957;SDS011;8595;52.542;11.974;2023-01-31T11:59:57;17.20;;;7.60;;
16957;SDS011;8595;52.542;11.974;2023-01-31T12:02:28;15.70;;;7.20;;
16957;SDS011;8595;52.542;11.974;2023-01-31T12:04:57;11.37;;;6.57;;
16957;SDS011;8595;52.542;11.974;2023-01-31T12:07:28;16.20;;;7.47;;
16957;SDS011;8595;52.542;11.974;2023-01-31T12:10:08;20.43;;;10.27;;
16957;SDS011;8595;52.542;11.974;2023-01-31T12:12:51;10.97;;;7.00;;
16957;SDS011;8595;52.542;11.974;2023-01-31T12:15:18;11.93;;;7.90;;
16957;SDS011;8595;52.542;11.974;2023-01-31T12:17:45;18.27;;;9.27;;
16957;SDS011;8595;52.542;11.974;2023-01-31T12:20:17;11.83;;;7.90;;
16957;SDS011;8595;52.542;11.974;2023-01-31T12:22:51;13.93;;;8.37;;
16957;SDS011;8595;52.542;11.974;2023-01-31T12:25:27;14.43;;;9.43;;
16957;SDS011;8595;52.542;11.974;2023-01-31T12:28:07;18.87;;;10.27;;
16957;SDS011;8595;52.542;11.974;2023-01-31T12:30:52;15.40;;;9.47;;
16957;SDS011;8595;52.542;11.974;2023-01-31T12:33:43;19.47;;;10.10;;
16957;SDS011;8595;52.542;11.974;2023-01-31T12:36:23;18.23;;;10.63;;
16957;SDS011;8595;52.542;11.974;2023-01-31T12:39:13;12.70;;;9.67;;
16957;SDS011;8595;52.542;11.974;2023-01-31T12:41:47;11.83;;;9.47;;
16957;SDS011;8595;52.542;11.974;2023-01-31T12:44:30;16.90;;;9.53;;
16957;SDS011;8595;52.542;11.974;2023-01-31T12:47:25;16.47;;;9.30;;
16957;SDS011;8595;52.542;11.974;2023-01-31T12:50:10;11.37;;;8.60;;
16957;SDS011;8595;52.542;11.974;2023-01-31T12:52:50;11.77;;;8.13;;
16957;SDS011;8595;52.542;11.974;2023-01-31T12:55:35;17.80;;;10.43;;
16957;SDS011;8595;52.542;11.974;2023-01-31T12:58:12;14.63;;;9.83;;
16957;SDS011;8595;52.542;11.974;2023-01-31T13:00:49;12.37;;;9.30;;
16957;SDS011;8595;52.542;11.974;2023-01-31T13:03:35;9.93;;;7.40;;
16957;SDS011;8595;52.542;11.974;2023-01-31T13:06:11;12.97;;;9.17;;
16957;SDS011;8595;52.542;11.974;2023-01-31T13:08:41;18.93;;;10.00;;
16957;SDS011;8595;52.542;11.974;2023-01-31T13:11:14;12.17;;;8.20;;
16957;SDS011;8595;52.542;11.974;2023-01-31T13:13:45;17.93;;;9.53;;
16957;SDS011;8595;52.542;11.974;2023-01-31T13:16:16;11.57;;;8.13;;
16957;SDS011;8595;52.542;11.974;2023-01-31T13:18:46;12.43;;;9.20;;
16957;SDS011;8595;52.542;11.974;2023-01-31T13:21:17;16.40;;;10.00;;
16957;SDS011;8595;52.542;11.974;2023-01-31T13:23:48;17.37;;;9.03;;
16957;SDS011;8595;52.542;11.974;2023-01-31T13:26:21;12.93;;;8.83;;
16957;SDS011;8595;52.542;11.974;2023-01-31T13:28:54;18.40;;;10.47;;
16957;SDS011;8595;52.542;11.974;2023-01-31T13:31:26;15.03;;;10.73;;
16957;SDS011;8595;52.542;11.974;2023-01-31T13:33:56;14.40;;;9.17;;
16957;SDS011;8595;52.542;11.974;2023-01-31T13:36:30;14.83;;;9.83;;
16957;SDS011;8595;52.542;11.974;2023-01-31T13:39:01;17.73;;;11.37;;
16957;SDS011;8595;52.542;11.974;2023-01-31T13:41:35;19.37;;;11.43;;
16957;SDS011;8595;52.542;11.974;2023-01-31T13:44:03;19.57;;;11.93;;
16957;SDS011;8595;52.542;11.974;2023-01-31T13:46:32;18.17;;;11.87;;
16957;SDS011;8595;52.542;11.974;2023-01-31T13:49:03;18.47;;;11.77;;
16957;SDS011;8595;52.542;11.974;2023-01-31T13:51:33;13.17;;;10.00;;
16957;SDS011;8595;52.542;11.974;2023-01-31T13:54:04;12.80;;;9.43;;
16957;SDS011;8595;52.542;11.974;2023-01-31T13:56:40;23.37;;;10.40;;
16957;SDS011;8595;52.542;11.974;2023-01-31T13:59:07;16.80;;;9.63;;
16957;SDS011;8595;52.542;11.974;2023-01-31T14:01:35;13.87;;;9.83;;
16957;SDS011;8595;52.542;11.974;2023-01-31T14:04:21;15.60;;;9.47;;
16957;SDS011;8595;52.542;11.974;2023-01-31T14:06:53;15.10;;;10.40;;
16957;SDS011;8595;52.542;11.974;2023-01-31T14:09:23;14.03;;;9.70;;
16957;SDS011;8595;52.542;11.974;2023-01-31T14:11:53;18.60;;;9.97;;
16957;SDS011;8595;52.542;11.974;2023-01-31T14:14:27;14.17;;;9.97;;
16957;SDS011;8595;52.542;11.974;2023-01-31T14:17:03;14.37;;;9.83;;
16957;SDS011;8595;52.542;11.974;2023-01-31T14:22:33;15.30;;;10.17;;
16957;SDS011;8595;52.542;11.974;2023-01-31T14:25:02;12.43;;;8.23;;
16957;SDS011;8595;52.542;11.974;2023-01-31T14:27:43;14.73;;;10.80;;
16957;SDS011;8595;52.542;11.974;2023-01-31T14:30:33;14.30;;;9.80;;
16957;SDS011;8595;52.542;11.974;2023-01-31T14:33:03;12.63;;;9.30;;
16957;SDS011;8595;52.542;11.974;2023-01-31T14:35:36;11.50;;;7.83;;
16957;SDS011;8595;52.542;11.974;2023-01-31T14:38:15;12.53;;;8.97;;
16957;SDS011;8595;52.542;11.974;2023-01-31T14:40:54;11.63;;;9.33;;
16957;SDS011;8595;52.542;11.974;2023-01-31T14:43:32;11.80;;;8.80;;
16957;SDS011;8595;52.542;11.974;2023-01-31T14:46:24;16.20;;;8.60;;
16957;SDS011;8595;52.542;11.974;2023-01-31T14:49:11;12.83;;;8.13;;
16957;SDS011;8595;52.542;11.974;2023-01-31T14:51:55;14.50;;;8.90;;
16957;SDS011;8595;52.542;11.974;2023-01-31T14:54:39;12.77;;;7.93;;
16957;SDS011;8595;52.542;11.974;2023-01-31T14:57:18;14.27;;;8.93;;
16957;SDS011;8595;52.542;11.974;2023-01-31T14:59:55;18.27;;;9.23;;
16957;SDS011;8595;52.542;11.974;2023-01-31T15:02:37;11.93;;;9.13;;